sensor_id;sensor_type;location;lat;lon;timestamp;pressure;altitude;pressure_sealevel;temperature;humidity
46614;BME280;32338;50.430;6.806;2023-03-23T00:01:32;66371.13;;;8.74;100.00
46614;BME280;32338;50.430;6.806;2023-03-23T00:04:03;66363.81;;;8.68;100.00
46614;BME280;32338;50.430;6.806;2023-03-23T00:06:30;66374.28;;;8.75;100.00
46614;BME280;32338;50.430;6.806;2023-03-23T00:09:00;66369.44;;;8.73;100.00
46614;BME280;32338;50.430;6.806;2023-03-23T00:11:30;66367.38;;;8.73;100.00
46614;BME280;32338;50.430;6.806;2023-03-23T00:13:59;66365.88;;;8.74;100.00
46614;BME280;32338;50.430;6.806;2023-03-23T00:16:28;66361.00;;;8.65;100.00
46614;BME280;32338;50.430;6.806;2023-03-23T00:18:58;66364.38;;;8.68;100.00
46614;BME280;32338;50.430;6.806;2023-03-23T00:21:28;66356.69;;;8.64;100.00
46614;BME280;32338;50.430;6.806;2023-03-23T00:24:01;66353.88;;;8.61;100.00
46614;BME280;32338;50.430;6.806;2023-03-23T00:26:27;66357.63;;;8.62;100.00
46614;BME280;32338;50.430;6.806;2023-03-23T00:28:55;66359.50;;;8.66;100.00
46614;BME280;32338;50.430;6.806;2023-03-23T00:31:21;66358.38;;;8.65;100.00
46614;BME280;32338;50.430;6.806;2023-03-23T00:33:48;66361.00;;;8.65;100.00
46614;BME280;32338;50.430;6.806;2023-03-23T00:36:15;66355.94;;;8.60;100.00
46614;BME280;32338;50.430;6.806;2023-03-23T00:38:44;66362.69;;;8.67;100.00
46614;BME280;32338;50.430;6.806;2023-03-23T00:41:12;66366.03;;;8.70;100.00
46614;BME280;32338;50.430;6.806;2023-03-23T00:43:40;66366.97;;;8.68;100.00
46614;BME280;32338;50.430;6.806;2023-03-23T00:46:07;66356.47;;;8.61;100.00
46614;BME280;32338;50.430;6.806;2023-03-23T00:48:35;66352.00;;;8.57;100.00
46614;BME280;32338;50.430;6.806;2023-03-23T00:51:06;66350.88;;;8.56;100.00
46614;BME280;32338;50.430;6.806;2023-03-23T00:53:35;66345.25;;;8.51;100.00
46614;BME280;32338;50.430;6.806;2023-03-23T00:56:04;66340.75;;;8.47;100.00
46614;BME280;32338;50.430;6.806;2023-03-23T00:58:31;66356.28;;;8.58;100.00
46614;BME280;32338;50.430;6.806;2023-03-23T01:00:57;66346.94;;;8.52;100.00
46614;BME280;32338;50.430;6.806;2023-03-23T01:03:24;66343.75;;;8.52;100.00
46614;BME280;32338;50.430;6.806;2023-03-23T01:05:51;66336.22;;;8.42;100.00
46614;BME280;32338;50.430;6.806;2023-03-23T01:08:19;66328.56;;;8.38;100.00
46614;BME280;32338;50.430;6.806;2023-03-23T01:10:46;66324.41;;;8.32;100.00
46614;BME280;32338;50.430;6.806;2023-03-23T01:13:15;66331.31;;;8.33;100.00
46614;BME280;32338;50.430;6.806;2023-03-23T01:15:42;66327.22;;;8.34;100.00
46614;BME280;32338;50.430;6.806;2023-03-23T01:18:09;66319.34;;;8.27;100.00
46614;BME280;32338;50.430;6.806;2023-03-23T01:20:36;66314.47;;;8.25;100.00
46614;BME280;32338;50.430;6.806;2023-03-23T01:23:03;66317.88;;;8.28;100.00
46614;BME280;32338;50.430;6.806;2023-03-23T01:25:32;66317.47;;;8.23;100.00
46614;BME280;32338;50.430;6.806;2023-03-23T01:28:01;66317.09;;;8.25;100.00
46614;BME280;32338;50.430;6.806;2023-03-23T01:30:29;66309.44;;;8.20;100.00
46614;BME280;32338;50.430;6.806;2023-03-23T01:32:55;66311.66;;;8.22;100.00
46614;BME280;32338;50.430;6.806;2023-03-23T01:35:22;66302.69;;;8.14;100.00
46614;BME280;32338;50.430;6.806;2023-03-23T01:37:49;66298.91;;;8.06;100.00
46614;BME280;32338;50.430;6.806;2023-03-23T01:40:15;66300.81;;;8.10;100.00
46614;BME280;32338;50.430;6.806;2023-03-23T01:42:42;66293.50;;;8.03;100.00
46614;BME280;32338;50.430;6.806;2023-03-23T01:45:23;66289.00;;;7.99;100.00
46614;BME280;32338;50.430;6.806;2023-03-23T01:47:56;66275.91;;;7.92;100.00
46614;BME280;32338;50.430;6.806;2023-03-23T01:50:24;66284.84;;;7.93;100.00
46614;BME280;32338;50.430;6.806;2023-03-23T01:52:53;66274.03;;;7.88;100.00
46614;BME280;32338;50.430;6.806;2023-03-23T01:55:22;66271.75;;;7.86;100.00
46614;BME280;32338;50.430;6.806;2023-03-23T01:57:49;66283.94;;;7.94;100.00
46614;BME280;32338;50.430;6.806;2023-03-23T02:00:17;66276.25;;;7.90;100.00
46614;BME280;32338;50.430;6.806;2023-03-23T02:02:47;66279.25;;;7.88;100.00
46614;BME280;32338;50.430;6.806;2023-03-23T02:05:19;66268.59;;;7.85;100.00
46614;BME280;32338;50.430;6.806;2023-03-23T02:07:47;66285.63;;;7.96;100.00
46614;BME280;32338;50.430;6.806;2023-03-23T02:10:15;66281.69;;;7.92;100.00
46614;BME280;32338;50.430;6.806;2023-03-23T02:12:41;66269.50;;;7.84;100.00
46614;BME280;32338;50.430;6.806;2023-03-23T02:15:09;66265.94;;;7.78;100.00
46614;BME280;32338;50.430;6.806;2023-03-23T02:17:39;66256.94;;;7.70;100.00
46614;BME280;32338;50.430;6.806;2023-03-23T02:20:21;66253.59;;;7.67;100.00
46614;BME280;32338;50.430;6.806;2023-03-23T02:26:10;66254.13;;;7.60;100.00
46614;BME280;32338;50.430;6.806;2023-03-23T02:31:56;66243.25;;;7.55;100.00
46614;BME280;32338;50.430;6.806;2023-03-23T02:34:29;66234.13;;;7.51;100.00
46614;BME280;32338;50.430;6.806;2023-03-23T02:37:00;66237.69;;;7.57;100.00
46614;BME280;32338;50.430;6.806;2023-03-23T02:39:31;66242.34;;;7.56;100.00
46614;BME280;32338;50.430;6.806;2023-03-23T02:42:04;66233.91;;;7.49;100.00
46614;BME280;32338;50.430;6.806;2023-03-23T02:44:33;66237.63;;;7.50;100.00
46614;BME280;32338;50.430;6.806;2023-03-23T02:47:03;66241.03;;;7.53;100.00
46614;BME280;32338;50.430;6.806;2023-03-23T02:49:34;66249.84;;;7.66;100.00
46614;BME280;32338;50.430;6.806;2023-03-23T02:52:07;66238.41;;;7.53;100.00
46614;BME280;32338;50.430;6.806;2023-03-23T02:54:35;66240.66;;;7.55;100.00
46614;BME280;32338;50.430;6.806;2023-03-23T02:57:02;66237.63;;;7.50;100.00
46614;BME280;32338;50.430;6.806;2023-03-23T02:59:29;66237.84;;;7.52;100.00
46614;BME280;32338;50.430;6.806;2023-03-23T03:02:01;66232.22;;;7.47;100.00
46614;BME280;32338;50.430;6.806;2023-03-23T03:04:33;66240.09;;;7.54;100.00
46614;BME280;32338;50.430;6.806;2023-03-23T03:07:09;66223.66;;;7.44;100.00
46614;BME280;32338;50.430;6.806;2023-03-23T03:09:45;66234.06;;;7.44;100.00
46614;BME280;32338;50.430;6.806;2023-03-23T03:12:19;66242.16;;;7.54;100.00
46614;BME280;32338;50.430;6.806;2023-03-23T03:14:52;66240.28;;;7.57;100.00
46614;BME280;32338;50.430;6.806;2023-03-23T03:17:24;66237.47;;;7.54;100.00
46614;BME280;32338;50.430;6.806;2023-03-23T03:19:56;66233.19;;;7.53;100.00
46614;BME280;32338;50.430;6.806;2023-03-23T03:22:25;66231.66;;;7.46;100.00
46614;BME280;32338;50.430;6.806;2023-03-23T03:24:56;66242.69;;;7.54;100.00
46614;BME280;32338;50.430;6.806;2023-03-23T03:27:24;66251.91;;;7.65;100.00
46614;BME280;32338;50.430;6.806;2023-03-23T03:29:55;66250.78;;;7.64;100.00
46614;BME280;32338;50.430;6.806;2023-03-23T03:32:26;66257.53;;;7.70;100.00
46614;BME280;32338;50.430;6.806;2023-03-23T03:35:00;66256.41;;;7.69;100.00
46614;BME280;32338;50.430;6.806;2023-03-23T03:37:26;66256.75;;;7.67;100.00
46614;BME280;32338;50.430;6.806;2023-03-23T03:39:53;66254.34;;;7.70;100.00
46614;BME280;32338;50.430;6.806;2023-03-23T03:42:20;66248.53;;;7.62;100.00
46614;BME280;32338;50.430;6.806;2023-03-23T03:44:47;66254.34;;;7.70;100.00
46614;BME280;32338;50.430;6.806;2023-03-23T03:47:14;66255.25;;;7.68;100.00
46614;BME280;32338;50.430;6.806;2023-03-23T03:49:40;66250.19;;;7.63;100.00
46614;BME280;32338;50.430;6.806;2023-03-23T03:52:08;66250.03;;;7.68;100.00
46614;BME280;32338;50.430;6.806;2023-03-23T03:54:35;66256.19;;;7.67;100.00
46614;BME280;32338;50.430;6.806;2023-03-23T03:57:02;66251.50;;;7.60;100.00
46614;BME280;32338;50.430;6.806;2023-03-23T03:59:29;66250.19;;;7.63;100.00
46614;BME280;32338;50.430;6.806;2023-03-23T04:01:55;66246.84;;;7.60;100.00
46614;BME280;32338;50.430;6.806;2023-03-23T04:04:22;66242.75;;;7.61;100.00
46614;BME280;32338;50.430;6.806;2023-03-23T04:06:49;66253.38;;;7.64;100.00
46614;BME280;32338;50.430;6.806;2023-03-23T04:09:17;66250.41;;;7.66;100.00
46614;BME280;32338;50.430;6.806;2023-03-23T04:11:44;66258.84;;;7.74;100.00
46614;BME280;32338;50.430;6.806;2023-03-23T04:14:11;66256.25;;;7.74;100.00
46614;BME280;32338;50.430;6.806;2023-03-23T04:16:37;66266.88;;;7.76;100.00
46614;BME280;32338;50.430;6.806;2023-03-23T04:19:05;66265.59;;;7.80;100.00
46614;BME280;32338;50.430;6.806;2023-03-23T04:21:32;66266.50;;;7.78;100.00
46614;BME280;32338;50.430;6.806;2023-03-23T04:23:59;66266.69;;;7.81;100.00
46614;BME280;32338;50.430;6.806;2023-03-23T04:26:27;66300.22;;;8.09;100.00
46614;BME280;32338;50.430;6.806;2023-03-23T04:28:55;66277.38;;;7.91;100.00
46614;BME280;32338;50.430;6.806;2023-03-23T04:31:22;66279.59;;;7.86;100.00
46614;BME280;32338;50.430;6.806;2023-03-23T04:33:51;66291.81;;;8.02;100.00
46614;BME280;32338;50.430;6.806;2023-03-23T04:36:18;66290.47;;;7.98;100.00
46614;BME280;32338;50.430;6.806;2023-03-23T04:38:47;66281.31;;;7.94;100.00
46614;BME280;32338;50.430;6.806;2023-03-23T04:41:15;66280.75;;;7.94;100.00
46614;BME280;32338;50.430;6.806;2023-03-23T04:43:43;66280.38;;;7.89;100.00
46614;BME280;32338;50.430;6.806;2023-03-23T04:46:10;66280.56;;;7.91;100.00
46614;BME280;32338;50.430;6.806;2023-03-23T04:48:37;66283.94;;;7.94;100.00
46614;BME280;32338;50.430;6.806;2023-03-23T04:51:05;66279.09;;;7.92;100.00
46614;BME280;32338;50.430;6.806;2023-03-23T04:53:32;66300.03;;;8.07;100.00
46614;BME280;32338;50.430;6.806;2023-03-23T04:55:59;66299.31;;;8.11;100.00
46614;BME280;32338;50.430;6.806;2023-03-23T04:58:27;66299.47;;;8.06;100.00
46614;BME280;32338;50.430;6.806;2023-03-23T05:00:56;66292.16;;;8.00;100.00
46614;BME280;32338;50.430;6.806;2023-03-23T05:03:23;66301.72;;;8.08;100.00
46614;BME280;32338;50.430;6.806;2023-03-23T05:05:50;66292.56;;;8.05;100.00
46614;BME280;32338;50.430;6.806;2023-03-23T05:08:18;66288.63;;;8.01;100.00
46614;BME280;32338;50.430;6.806;2023-03-23T05:10:50;66291.66;;;8.06;100.00
46614;BME280;32338;50.430;6.806;2023-03-23T05:13:17;66283.38;;;7.94;100.00
46614;BME280;32338;50.430;6.806;2023-03-23T05:15:44;66286.38;;;7.99;100.00
46614;BME280;32338;50.430;6.806;2023-03-23T05:18:12;66280.38;;;7.89;100.00
46614;BME280;32338;50.430;6.806;2023-03-23T05:20:39;66281.13;;;7.92;100.00
46614;BME280;32338;50.430;6.806;2023-03-23T05:23:07;66270.63;;;7.85;100.00
46614;BME280;32338;50.430;6.806;2023-03-23T05:25:34;66272.69;;;7.84;100.00
46614;BME280;32338;50.430;6.806;2023-03-23T05:28:05;66275.50;;;7.87;100.00
46614;BME280;32338;50.430;6.806;2023-03-23T05:30:32;66283.94;;;7.94;100.00
46614;BME280;32338;50.430;6.806;2023-03-23T05:32:59;66282.59;;;7.91;100.00
46614;BME280;32338;50.430;6.806;2023-03-23T05:35:27;66282.81;;;7.93;100.00
46614;BME280;32338;50.430;6.806;2023-03-23T05:37:53;66286.00;;;7.94;100.00
46614;BME280;32338;50.430;6.806;2023-03-23T05:40:21;66277.75;;;7.89;100.00
46614;BME280;32338;50.430;6.806;2023-03-23T05:42:49;66274.56;;;7.88;100.00
46614;BME280;32338;50.430;6.806;2023-03-23T05:45:15;66284.84;;;7.93;100.00
46614;BME280;32338;50.430;6.806;2023-03-23T05:47:42;66286.00;;;7.94;100.00
46614;BME280;32338;50.430;6.806;2023-03-23T05:50:10;66285.25;;;7.98;100.00
46614;BME280;32338;50.430;6.806;2023-03-23T05:52:39;66286.75;;;7.97;100.00
46614;BME280;32338;50.430;6.806;2023-03-23T05:55:07;66288.78;;;7.97;100.00
46614;BME280;32338;50.430;6.806;2023-03-23T05:57:34;66292.34;;;8.02;100.00
46614;BME280;32338;50.430;6.806;2023-03-23T06:00:01;66305.09;;;8.11;100.00
46614;BME280;32338;50.430;6.806;2023-03-23T06:02:38;66302.28;;;8.09;100.00
46614;BME280;32338;50.430;6.806;2023-03-23T06:05:09;66302.50;;;8.11;100.00
46614;BME280;32338;50.430;6.806;2023-03-23T06:07:35;66297.44;;;8.07;100.00
46614;BME280;32338;50.430;6.806;2023-03-23T06:10:05;66296.88;;;8.06;100.00
46614;BME280;32338;50.430;6.806;2023-03-23T06:12:32;66296.09;;;8.03;100.00
46614;BME280;32338;50.430;6.806;2023-03-23T06:14:59;66293.28;;;8.01;100.00
46614;BME280;32338;50.430;6.806;2023-03-23T06:17:25;66285.81;;;7.99;100.00
46614;BME280;32338;50.430;6.806;2023-03-23T06:19:53;66303.19;;;8.07;100.00
46614;BME280;32338;50.430;6.806;2023-03-23T06:22:19;66296.50;;;8.08;100.00
46614;BME280;32338;50.430;6.806;2023-03-23T06:24:46;66319.94;;;8.27;100.00
46614;BME280;32338;50.430;6.806;2023-03-23T06:27:15;66318.22;;;8.26;100.00
46614;BME280;32338;50.430;6.806;2023-03-23T06:29:42;66316.53;;;8.24;100.00
46614;BME280;32338;50.430;6.806;2023-03-23T06:32:10;66318.59;;;8.24;100.00
46614;BME280;32338;50.430;6.806;2023-03-23T06:34:38;66329.47;;;8.36;100.00
46614;BME280;32338;50.430;6.806;2023-03-23T06:37:05;66324.63;;;8.34;100.00
46614;BME280;32338;50.430;6.806;2023-03-23T06:39:32;66334.34;;;8.38;100.00
46614;BME280;32338;50.430;6.806;2023-03-23T06:41:59;66335.09;;;8.41;100.00
46614;BME280;32338;50.430;6.806;2023-03-23T06:44:27;66333.78;;;8.38;100.00
46614;BME280;32338;50.430;6.806;2023-03-23T06:46:54;66333.97;;;8.40;100.00
46614;BME280;32338;50.430;6.806;2023-03-23T06:49:21;66333.97;;;8.40;100.00
46614;BME280;32338;50.430;6.806;2023-03-23T06:51:48;66329.69;;;8.39;100.00
46614;BME280;32338;50.430;6.806;2023-03-23T06:54:15;66346.16;;;8.49;100.00
46614;BME280;32338;50.430;6.806;2023-03-23T06:56:42;66345.03;;;8.48;100.00
46614;BME280;32338;50.430;6.806;2023-03-23T06:59:08;66342.63;;;8.51;100.00
46614;BME280;32338;50.430;6.806;2023-03-23T07:01:36;66355.34;;;8.60;100.00
46614;BME280;32338;50.430;6.806;2023-03-23T07:04:03;66361.75;;;8.68;100.00
46614;BME280;32338;50.430;6.806;2023-03-23T07:06:30;66357.44;;;8.67;100.00
46614;BME280;32338;50.430;6.806;2023-03-23T07:08:57;66352.75;;;8.60;100.00
46614;BME280;32338;50.430;6.806;2023-03-23T07:11:23;66364.56;;;8.71;100.00
46614;BME280;32338;50.430;6.806;2023-03-23T07:13:50;66366.25;;;8.72;100.00
46614;BME280;32338;50.430;6.806;2023-03-23T07:16:17;66374.84;;;8.75;100.00
46614;BME280;32338;50.430;6.806;2023-03-23T07:18:45;66372.59;;;8.73;100.00
46614;BME280;32338;50.430;6.806;2023-03-23T07:21:12;66386.47;;;8.84;100.00
46614;BME280;32338;50.430;6.806;2023-03-23T07:23:38;66396.81;;;8.96;100.00
46614;BME280;32338;50.430;6.806;2023-03-23T07:26:06;66402.63;;;9.03;100.00
46614;BME280;32338;50.430;6.806;2023-03-23T07:28:33;66394.94;;;8.99;100.00
46614;BME280;32338;50.430;6.806;2023-03-23T07:31:01;66389.13;;;8.91;100.00
46614;BME280;32338;50.430;6.806;2023-03-23T07:33:28;66402.06;;;9.03;100.00
46614;BME280;32338;50.430;6.806;2023-03-23T07:35:58;66399.81;;;9.01;100.00
46614;BME280;32338;50.430;6.806;2023-03-23T07:38:25;66400.59;;;9.04;100.00
46614;BME280;32338;50.430;6.806;2023-03-23T07:40:53;66398.31;;;9.02;100.00
46614;BME280;32338;50.430;6.806;2023-03-23T07:43:19;66408.81;;;9.09;100.00
46614;BME280;32338;50.430;6.806;2023-03-23T07:45:46;66409.38;;;9.09;100.00
46614;BME280;32338;50.430;6.806;2023-03-23T07:48:13;66397.38;;;9.03;100.00
46614;BME280;32338;50.430;6.806;2023-03-23T07:50:40;66398.69;;;9.00;100.00
46614;BME280;32338;50.430;6.806;2023-03-23T07:53:11;66395.13;;;9.01;100.00
46614;BME280;32338;50.430;6.806;2023-03-23T07:55:38;66408.03;;;9.06;100.00
46614;BME280;32338;50.430;6.806;2023-03-23T07:58:07;66408.44;;;9.11;100.00
46614;BME280;32338;50.430;6.806;2023-03-23T08:00:34;66421.41;;;9.23;100.00
46614;BME280;32338;50.430;6.806;2023-03-23T08:03:01;66418.00;;;9.20;100.00
46614;BME280;32338;50.430;6.806;2023-03-23T08:05:31;66422.88;;;9.22;100.00
46614;BME280;32338;50.430;6.806;2023-03-23T08:07:59;66429.63;;;9.28;100.00
46614;BME280;32338;50.430;6.806;2023-03-23T08:10:28;66426.81;;;9.25;100.00
46614;BME280;32338;50.430;6.806;2023-03-23T08:12:56;66422.16;;;9.26;100.00
46614;BME280;32338;50.430;6.806;2023-03-23T08:15:24;66421.41;;;9.23;100.00
46614;BME280;32338;50.430;6.806;2023-03-23T08:17:51;66422.31;;;9.21;100.00
46614;BME280;32338;50.430;6.806;2023-03-23T08:20:18;66419.88;;;9.17;100.00
46614;BME280;32338;50.430;6.806;2023-03-23T08:22:50;66421.41;;;9.23;100.00
46614;BME280;32338;50.430;6.806;2023-03-23T08:25:18;66424.38;;;9.21;100.00
46614;BME280;32338;50.430;6.806;2023-03-23T08:27:49;66416.16;;;9.23;100.00
46614;BME280;32338;50.430;6.806;2023-03-23T08:30:18;66416.31;;;9.18;100.00
46614;BME280;32338;50.430;6.806;2023-03-23T08:32:46;66414.06;;;9.16;100.00
46614;BME280;32338;50.430;6.806;2023-03-23T08:35:14;66407.88;;;9.11;100.00
46614;BME280;32338;50.430;6.806;2023-03-23T08:37:42;66413.88;;;9.14;100.00
46614;BME280;32338;50.430;6.806;2023-03-23T08:40:10;66413.50;;;9.16;100.00
46614;BME280;32338;50.430;6.806;2023-03-23T08:42:40;66416.31;;;9.18;100.00
46614;BME280;32338;50.430;6.806;2023-03-23T08:45:11;66417.44;;;9.19;100.00
46614;BME280;32338;50.430;6.806;2023-03-23T08:47:38;66425.69;;;9.24;100.00
46614;BME280;32338;50.430;6.806;2023-03-23T08:50:07;66418.78;;;9.23;100.00
46614;BME280;32338;50.430;6.806;2023-03-23T08:52:36;66437.72;;;9.38;100.00
46614;BME280;32338;50.430;6.806;2023-03-23T08:55:03;66436.94;;;9.35;100.00
46614;BME280;32338;50.430;6.806;2023-03-23T08:57:30;66430.97;;;9.32;100.00
46614;BME280;32338;50.430;6.806;2023-03-23T08:59:57;66433.78;;;9.34;100.00
46614;BME280;32338;50.430;6.806;2023-03-23T09:02:28;66426.81;;;9.25;100.00
46614;BME280;32338;50.430;6.806;2023-03-23T09:04:59;66419.13;;;9.21;100.00
46614;BME280;32338;50.430;6.806;2023-03-23T09:07:26;66425.13;;;9.24;100.00
46614;BME280;32338;50.430;6.806;2023-03-23T09:09:53;66430.78;;;9.29;100.00
46614;BME280;32338;50.430;6.806;2023-03-23T09:12:20;66427.38;;;9.26;100.00
46614;BME280;32338;50.430;6.806;2023-03-23T09:14:46;66413.31;;;9.13;100.00
46614;BME280;32338;50.430;6.806;2023-03-23T09:17:13;66409.00;;;9.12;100.00
46614;BME280;32338;50.430;6.806;2023-03-23T09:19:41;66407.88;;;9.11;100.00
46614;BME280;32338;50.430;6.806;2023-03-23T09:22:08;66403.19;;;9.04;100.00
46614;BME280;32338;50.430;6.806;2023-03-23T09:24:35;66398.88;;;9.02;100.00
46614;BME280;32338;50.430;6.806;2023-03-23T09:27:02;66393.63;;;8.95;100.00
46614;BME280;32338;50.430;6.806;2023-03-23T09:29:29;66381.44;;;8.86;100.00
46614;BME280;32338;50.430;6.806;2023-03-23T09:31:56;66388.56;;;8.90;100.00
46614;BME280;32338;50.430;6.806;2023-03-23T09:34:23;66380.13;;;8.83;100.00
46614;BME280;32338;50.430;6.806;2023-03-23T09:36:51;66384.25;;;8.89;100.00
46614;BME280;32338;50.430;6.806;2023-03-23T09:39:18;66383.69;;;8.88;100.00
46614;BME280;32338;50.430;6.806;2023-03-23T09:42:04;66397.75;;;9.01;100.00
46614;BME280;32338;50.430;6.806;2023-03-23T09:44:42;66419.88;;;9.17;100.00
46614;BME280;32338;50.430;6.806;2023-03-23T09:47:19;66441.66;;;9.41;100.00
46614;BME280;32338;50.430;6.806;2023-03-23T09:49:51;66448.78;;;9.46;100.00
46614;BME280;32338;50.430;6.806;2023-03-23T09:52:21;66447.84;;;9.47;100.00
46614;BME280;32338;50.430;6.806;2023-03-23T09:54:51;66455.53;;;9.52;100.00
46614;BME280;32338;50.430;6.806;2023-03-23T09:57:24;66439.75;;;9.37;100.00
46614;BME280;32338;50.430;6.806;2023-03-23T09:59:58;66433.00;;;9.31;100.00
46614;BME280;32338;50.430;6.806;2023-03-23T10:02:29;66439.75;;;9.37;100.00
46614;BME280;32338;50.430;6.806;2023-03-23T10:05:14;66436.19;;;9.32;100.00
46614;BME280;32338;50.430;6.806;2023-03-23T10:07:43;66428.50;;;9.27;100.00
46614;BME280;32338;50.430;6.806;2023-03-23T10:10:13;66434.88;;;9.28;100.00
46614;BME280;32338;50.430;6.806;2023-03-23T10:12:49;66418.00;;;9.20;100.00
46614;BME280;32338;50.430;6.806;2023-03-23T10:15:21;66417.25;;;9.17;100.00
46614;BME280;32338;50.430;6.806;2023-03-23T10:17:54;66415.56;;;9.15;100.00
46614;BME280;32338;50.430;6.806;2023-03-23T10:20:39;66410.34;;;9.15;100.00
46614;BME280;32338;50.430;6.806;2023-03-23T10:23:46;66428.16;;;9.29;100.00
46614;BME280;32338;50.430;6.806;2023-03-23T10:26:33;66427.38;;;9.26;100.00
46614;BME280;32338;50.430;6.806;2023-03-23T10:29:13;66420.06;;;9.19;100.00
46614;BME280;32338;50.430;6.806;2023-03-23T10:31:44;66430.78;;;9.29;100.00
46614;BME280;32338;50.430;6.806;2023-03-23T10:34:21;66433.00;;;9.31;100.00
46614;BME280;32338;50.430;6.806;2023-03-23T10:36:59;66444.84;;;9.42;100.00
46614;BME280;32338;50.430;6.806;2023-03-23T10:39:32;66436.19;;;9.32;100.00
46614;BME280;32338;50.430;6.806;2023-03-23T10:42:05;66435.09;;;9.38;100.00
46614;BME280;32338;50.430;6.806;2023-03-23T10:44:33;66439.00;;;9.34;100.00
46614;BME280;32338;50.430;6.806;2023-03-23T10:47:02;66447.84;;;9.47;100.00
46614;BME280;32338;50.430;6.806;2023-03-23T10:49:33;66445.38;;;9.43;100.00
46614;BME280;32338;50.430;6.806;2023-03-23T10:52:05;66459.88;;;9.61;100.00
46614;BME280;32338;50.430;6.806;2023-03-23T10:54:37;66472.41;;;9.67;100.00
46614;BME280;32338;50.430;6.806;2023-03-23T10:57:13;66481.44;;;9.76;100.00
46614;BME280;32338;50.430;6.806;2023-03-23T10:59:46;66467.94;;;9.70;100.00
46614;BME280;32338;50.430;6.806;2023-03-23T11:02:16;66484.03;;;9.76;100.00
46614;BME280;32338;50.430;6.806;2023-03-23T11:04:47;66479.94;;;9.77;100.00
46614;BME280;32338;50.430;6.806;2023-03-23T11:07:25;66493.81;;;9.87;100.00
46614;BME280;32338;50.430;6.806;2023-03-23T11:09:56;66495.66;;;9.84;100.00
46614;BME280;32338;50.430;6.806;2023-03-23T11:12:23;66489.50;;;9.85;100.00
46614;BME280;32338;50.430;6.806;2023-03-23T11:14:51;66477.47;;;9.72;100.00
46614;BME280;32338;50.430;6.806;2023-03-23T11:17:22;66476.00;;;9.73;100.00
46614;BME280;32338;50.430;6.806;2023-03-23T11:19:51;66487.59;;;9.81;100.00
46614;BME280;32338;50.430;6.806;2023-03-23T11:22:23;66498.88;;;9.92;100.00
46614;BME280;32338;50.430;6.806;2023-03-23T11:24:53;66494.00;;;9.89;100.00
46614;BME280;32338;50.430;6.806;2023-03-23T11:27:23;66501.69;;;9.94;100.00
46614;BME280;32338;50.430;6.806;2023-03-23T11:29:54;66509.22;;;10.03;100.00
46614;BME280;32338;50.430;6.806;2023-03-23T11:32:26;66524.03;;;10.12;100.00
46614;BME280;32338;50.430;6.806;2023-03-23T11:34:57;66520.28;;;10.11;100.00
46614;BME280;32338;50.430;6.806;2023-03-23T11:37:28;66519.72;;;10.11;100.00
46614;BME280;32338;50.430;6.806;2023-03-23T11:39:58;66514.84;;;10.09;100.00
46614;BME280;32338;50.430;6.806;2023-03-23T11:42:36;66521.00;;;10.07;100.00
46614;BME280;32338;50.430;6.806;2023-03-23T11:45:14;66511.28;;;10.03;100.00
46614;BME280;32338;50.430;6.806;2023-03-23T11:47:50;66522.19;;;10.15;100.00
46614;BME280;32338;50.430;6.806;2023-03-23T11:50:27;66523.09;;;10.14;100.00
46614;BME280;32338;50.430;6.806;2023-03-23T11:53:00;66515.03;;;10.11;100.00
46614;BME280;32338;50.430;6.806;2023-03-23T11:55:33;66518.22;;;10.12;100.00
46614;BME280;32338;50.430;6.806;2023-03-23T11:58:09;66515.97;;;10.10;100.00
46614;BME280;32338;50.430;6.806;2023-03-23T12:00:41;66522.53;;;10.13;100.00
46614;BME280;32338;50.430;6.806;2023-03-23T12:03:17;66542.66;;;10.36;100.00
46614;BME280;32338;50.430;6.806;2023-03-23T12:05:49;66544.13;;;10.35;100.00
46614;BME280;32338;50.430;6.806;2023-03-23T12:08:28;66557.84;;;10.43;100.00
46614;BME280;32338;50.430;6.806;2023-03-23T12:11:03;66562.19;;;10.52;100.00
46614;BME280;32338;50.430;6.806;2023-03-23T12:13:51;66564.06;;;10.56;100.00
46614;BME280;32338;50.430;6.806;2023-03-23T12:16:29;66572.31;;;10.61;100.00
46614;BME280;32338;50.430;6.806;2023-03-23T12:19:09;66572.13;;;10.59;100.00
46614;BME280;32338;50.430;6.806;2023-03-23T12:21:47;66562.19;;;10.52;100.00
46614;BME280;32338;50.430;6.806;2023-03-23T12:24:36;66547.91;;;10.44;100.00
46614;BME280;32338;50.430;6.806;2023-03-23T12:27:12;66545.06;;;10.34;100.00
46614;BME280;32338;50.430;6.806;2023-03-23T12:30:02;66532.09;;;10.22;100.00
46614;BME280;32338;50.430;6.806;2023-03-23T12:32:48;66535.84;;;10.23;100.00
46614;BME280;32338;50.430;6.806;2023-03-23T12:35:28;66547.34;;;10.36;100.00
46614;BME280;32338;50.430;6.806;2023-03-23T12:38:09;66541.31;;;10.33;100.00
46614;BME280;32338;50.430;6.806;2023-03-23T12:40:48;66531.19;;;10.23;100.00
46614;BME280;32338;50.430;6.806;2023-03-23T12:43:22;66532.84;;;10.25;100.00
46614;BME280;32338;50.430;6.806;2023-03-23T12:46:16;66520.47;;;10.14;100.00
46614;BME280;32338;50.430;6.806;2023-03-23T12:48:51;66519.72;;;10.11;100.00
46614;BME280;32338;50.430;6.806;2023-03-23T12:51:22;66530.22;;;10.18;100.00
46614;BME280;32338;50.430;6.806;2023-03-23T12:53:57;66541.47;;;10.21;100.00
46614;BME280;32338;50.430;6.806;2023-03-23T12:56:30;66520.47;;;10.14;100.00
46614;BME280;32338;50.430;6.806;2023-03-23T12:59:04;66531.34;;;10.19;100.00
46614;BME280;32338;50.430;6.806;2023-03-23T13:01:38;66530.44;;;10.20;100.00
46614;BME280;32338;50.430;6.806;2023-03-23T13:04:09;66522.72;;;10.16;100.00
46614;BME280;32338;50.430;6.806;2023-03-23T13:06:38;66548.47;;;10.37;100.00
46614;BME280;32338;50.430;6.806;2023-03-23T13:09:11;66540.75;;;10.32;100.00
46614;BME280;32338;50.430;6.806;2023-03-23T13:11:41;66540.75;;;10.32;100.00
46614;BME280;32338;50.430;6.806;2023-03-23T13:14:33;66543.22;;;10.37;100.00
46614;BME280;32338;50.430;6.806;2023-03-23T13:17:09;66549.78;;;10.41;100.00
46614;BME280;32338;50.430;6.806;2023-03-23T13:19:53;66553.53;;;10.42;100.00
46614;BME280;32338;50.430;6.806;2023-03-23T13:22:27;66549.59;;;10.38;100.00